createdAt,value
2022-11-28T00:00:57.157Z,98704.94
2022-11-28T00:03:02.963Z,98681.66
2022-11-28T00:05:09.493Z,98670.03
2022-11-28T00:07:15.979Z,98675.00
2022-11-28T00:09:24.252Z,98671.69
2022-11-28T00:11:29.912Z,98661.72
2022-11-28T00:13:37.582Z,98661.75
2022-11-28T00:15:43.789Z,98655.09
2022-11-28T00:17:48.824Z,98646.81
2022-11-28T00:19:54.107Z,98643.47
2022-11-28T00:21:59.120Z,98636.84
2022-11-28T00:24:04.774Z,98640.22
2022-11-28T00:26:12.964Z,98643.53
2022-11-28T00:28:18.489Z,98640.22
2022-11-28T00:30:26.430Z,98637.72
2022-11-28T00:32:31.835Z,98636.88
2022-11-28T00:34:36.844Z,98641.03
2022-11-28T00:36:42.049Z,98640.22
2022-11-28T00:38:47.945Z,98643.53
2022-11-28T00:41:02.566Z,98644.41
2022-11-28T00:43:07.657Z,98641.91
2022-11-28T00:45:13.295Z,98643.59
2022-11-28T00:47:20.902Z,98638.59
2022-11-28T00:49:26.362Z,98648.59
2022-11-28T00:51:36.269Z,98641.09
2022-11-28T00:53:43.013Z,98630.31
2022-11-28T00:55:48.199Z,98633.63
2022-11-28T00:57:55.596Z,98626.16
2022-11-28T01:00:00.655Z,98627.00
2022-11-28T01:02:05.903Z,98613.69
2022-11-28T01:04:17.414Z,98615.34
2022-11-28T01:06:29.022Z,98622.03
2022-11-28T01:08:35.017Z,98612.06
2022-11-28T01:10:43.570Z,98611.25
2022-11-28T01:12:48.940Z,98607.09
2022-11-28T01:14:54.279Z,98610.38
2022-11-28T01:16:59.480Z,98617.03
2022-11-28T01:19:04.546Z,98617.88
2022-11-28T01:21:12.701Z,98614.53
2022-11-28T01:23:20.597Z,98609.56
2022-11-28T01:25:25.619Z,98607.06
2022-11-28T01:27:30.663Z,98608.72
2022-11-28T01:29:36.142Z,98602.06
2022-11-28T01:31:41.901Z,98609.56
2022-11-28T01:33:47.455Z,98603.78
2022-11-28T01:36:02.042Z,98597.09
2022-11-28T01:38:09.669Z,98598.78
2022-11-28T01:40:16.626Z,98590.44
2022-11-28T01:42:22.836Z,98588.00
2022-11-28T01:45:07.782Z,98583.84
2022-11-28T01:47:12.933Z,98583.84
2022-11-28T01:49:25.399Z,98583.03
2022-11-28T01:51:32.490Z,98579.72
2022-11-28T01:53:45.677Z,98575.56
2022-11-28T01:56:04.577Z,98573.03
2022-11-28T01:58:10.011Z,98572.19
2022-11-28T02:00:20.308Z,98574.72
2022-11-28T02:02:32.468Z,98570.56
2022-11-28T02:04:38.846Z,98575.53
2022-11-28T02:06:45.212Z,98565.59
2022-11-28T02:08:55.132Z,98563.94
2022-11-28T02:11:31.080Z,98563.16
2022-11-28T02:13:49.362Z,98557.34
2022-11-28T02:16:23.067Z,98557.34
2022-11-28T02:18:51.729Z,98554.03
2022-11-28T02:21:31.479Z,98549.88
2022-11-28T02:24:08.515Z,98542.41
2022-11-28T02:26:57.022Z,98542.41
2022-11-28T02:29:56.076Z,98545.72
2022-11-28T02:32:25.380Z,98538.28
2022-11-28T02:34:45.643Z,98539.13
2022-11-28T02:36:58.932Z,98537.53
2022-11-28T02:39:15.096Z,98539.22
2022-11-28T02:41:31.173Z,98540.88
2022-11-28T02:43:45.207Z,98550.91
2022-11-28T02:46:00.713Z,98542.63
2022-11-28T02:48:15.444Z,98539.28
2022-11-28T02:50:27.444Z,98542.63
2022-11-28T02:52:40.509Z,98543.41
2022-11-28T02:54:46.886Z,98540.94
2022-11-28T02:56:52.705Z,98540.09
2022-11-28T02:58:58.294Z,98535.13
2022-11-28T03:01:03.716Z,98535.94
2022-11-28T03:03:44.363Z,98533.44
2022-11-28T03:05:56.281Z,98536.75
2022-11-28T03:08:14.187Z,98539.22
2022-11-28T03:10:32.574Z,98540.88
2022-11-28T03:12:53.302Z,98523.44
2022-11-28T03:15:01.773Z,98519.28
2022-11-28T03:17:17.110Z,98517.63
2022-11-28T03:19:31.180Z,98513.47
2022-11-28T03:21:43.559Z,98512.63
2022-11-28T03:23:54.803Z,98514.31
2022-11-28T03:26:03.112Z,98504.34
2022-11-28T03:28:14.313Z,98505.13
2022-11-28T03:30:28.519Z,98502.66
2022-11-28T03:32:38.427Z,98492.63
2022-11-28T03:34:50.440Z,98493.44
2022-11-28T03:37:02.417Z,98490.91
2022-11-28T03:39:14.332Z,98481.75
2022-11-28T03:41:28.243Z,98489.19
2022-11-28T03:43:41.324Z,98488.34
2022-11-28T03:45:51.084Z,98486.69
2022-11-28T03:48:01.337Z,98481.66
2022-11-28T03:50:16.751Z,98475.03
2022-11-28T03:52:28.309Z,98490.78
2022-11-28T03:54:49.989Z,98501.56
2022-11-28T03:57:04.034Z,98492.41
2022-11-28T03:59:16.855Z,98480.78
2022-11-28T04:01:34.831Z,98484.09
2022-11-28T04:03:49.080Z,98489.88
2022-11-28T04:06:05.014Z,98484.09
2022-11-28T04:08:17.116Z,98489.06
2022-11-28T04:10:27.833Z,98497.38
2022-11-28T04:12:48.644Z,98480.75
2022-11-28T04:14:59.071Z,98468.28
2022-11-28T04:17:16.167Z,98472.47
2022-11-28T04:19:30.949Z,98476.63
2022-11-28T04:21:46.262Z,98485.72
2022-11-28T04:23:54.913Z,98480.75
2022-11-28T04:26:06.037Z,98479.13
2022-11-28T04:28:15.833Z,98458.31
2022-11-28T04:30:21.353Z,98459.16
2022-11-28T04:32:29.529Z,98460.84
2022-11-28T04:34:37.543Z,98456.72
2022-11-28T04:36:47.117Z,98439.22
2022-11-28T04:38:56.421Z,98435.91
2022-11-28T04:41:11.400Z,98445.91
2022-11-28T04:43:23.646Z,98439.25
2022-11-28T04:45:34.932Z,98441.00
2022-11-28T04:47:40.045Z,98444.31
2022-11-28T04:49:45.517Z,98440.16
2022-11-28T04:52:01.953Z,98422.69
2022-11-28T04:54:14.983Z,98431.03
2022-11-28T04:56:26.804Z,98424.38
2022-11-28T04:58:38.574Z,98423.47
2022-11-28T05:00:45.635Z,98417.66
2022-11-28T05:02:55.611Z,98429.28
2022-11-28T05:05:01.125Z,98432.66
2022-11-28T05:07:11.120Z,98415.16
2022-11-28T05:09:16.746Z,98402.66
2022-11-28T05:11:21.851Z,98401.78
2022-11-28T05:13:27.257Z,98400.91
2022-11-28T05:15:32.276Z,98405.94
2022-11-28T05:17:42.240Z,98402.66
2022-11-28T05:19:48.716Z,98401.00
2022-11-28T05:21:55.004Z,98397.69
2022-11-28T05:24:02.769Z,98390.25
2022-11-28T05:26:09.833Z,98403.53
2022-11-28T05:28:15.206Z,98396.00
2022-11-28T05:30:20.628Z,98399.34
2022-11-28T05:32:26.022Z,98401.78
2022-11-28T05:34:31.209Z,98390.97
2022-11-28T05:36:36.215Z,98397.63
2022-11-28T05:38:41.856Z,98396.75
2022-11-28T05:40:49.500Z,98402.63
2022-11-28T05:42:54.498Z,98398.44
2022-11-28T05:44:59.575Z,98398.41
2022-11-28T05:47:04.642Z,98400.09
2022-11-28T05:49:09.660Z,98392.66
2022-11-28T05:51:15.212Z,98395.09
2022-11-28T05:53:21.461Z,98392.56
2022-11-28T05:55:26.497Z,98397.56
2022-11-28T05:57:35.012Z,98394.25
2022-11-28T05:59:40.187Z,98395.88
2022-11-28T06:01:45.359Z,98384.34
2022-11-28T06:03:51.955Z,98387.69
2022-11-28T06:05:57.604Z,98388.56
2022-11-28T06:08:02.809Z,98391.06
2022-11-28T06:10:10.493Z,98396.94
2022-11-28T06:12:15.515Z,98399.41
2022-11-28T06:14:23.109Z,98391.16
2022-11-28T06:16:31.319Z,98389.50
2022-11-28T06:18:36.378Z,98391.19
2022-11-28T06:20:41.365Z,98391.22
2022-11-28T06:22:48.552Z,98400.41
2022-11-28T06:24:53.628Z,98392.06
2022-11-28T06:26:58.680Z,98391.19
2022-11-28T06:29:04.355Z,98391.19
2022-11-28T06:31:17.930Z,98400.38
2022-11-28T06:33:22.946Z,98395.38
2022-11-28T06:35:28.369Z,98392.06
2022-11-28T06:37:33.358Z,98392.06
2022-11-28T06:39:38.360Z,98390.44
2022-11-28T06:41:43.368Z,98392.97
2022-11-28T06:43:48.347Z,98394.59
2022-11-28T06:45:53.481Z,98402.91
2022-11-28T06:48:01.066Z,98395.50
2022-11-28T06:50:06.520Z,98397.97
2022-11-28T06:52:11.804Z,98395.41
2022-11-28T06:54:16.798Z,98401.25
2022-11-28T06:56:23.272Z,98401.31
2022-11-28T06:58:28.337Z,98404.66
2022-11-28T07:00:33.886Z,98406.28
2022-11-28T07:02:39.008Z,98412.94
2022-11-28T07:04:47.350Z,98407.13
2022-11-28T07:06:52.404Z,98409.59
2022-11-28T07:08:59.872Z,98398.81
2022-11-28T07:11:13.511Z,98405.50
2022-11-28T07:13:18.255Z,98399.69
2022-11-28T07:15:23.940Z,98415.50
2022-11-28T07:17:29.104Z,98417.97
2022-11-28T07:19:34.419Z,98416.31
2022-11-28T07:21:42.403Z,98415.50
2022-11-28T07:23:48.000Z,98417.94
2022-11-28T07:25:53.550Z,98419.63
2022-11-28T07:27:58.902Z,98422.94
2022-11-28T07:30:03.964Z,98421.28
2022-11-28T07:32:10.393Z,98422.09
2022-11-28T07:34:15.754Z,98406.28
2022-11-28T07:36:23.232Z,98404.66
2022-11-28T07:38:31.778Z,98409.66
2022-11-28T07:40:36.826Z,98411.28
2022-11-28T07:42:42.492Z,98411.28
2022-11-28T07:44:49.291Z,98409.56
2022-11-28T07:46:54.603Z,98415.38
2022-11-28T07:49:00.298Z,98417.88
2022-11-28T07:51:09.693Z,98420.34
2022-11-28T07:53:14.836Z,98422.81
2022-11-28T07:55:22.377Z,98426.09
2022-11-28T07:57:27.849Z,98422.72
2022-11-28T07:59:32.952Z,98419.31
2022-11-28T08:01:39.173Z,98420.97
2022-11-28T08:03:45.773Z,98426.75
2022-11-28T08:05:50.754Z,98432.56
2022-11-28T08:07:56.213Z,98430.03
2022-11-28T08:10:01.811Z,98440.81
2022-11-28T08:12:10.380Z,98439.16
2022-11-28T08:14:15.411Z,98440.81
2022-11-28T08:16:23.137Z,98444.13
2022-11-28T08:18:28.312Z,98440.81
2022-11-28T08:20:33.672Z,98437.47
2022-11-28T08:22:38.748Z,98435.00
2022-11-28T08:24:44.838Z,98430.00
2022-11-28T08:26:50.080Z,98429.16
2022-11-28T08:28:57.833Z,98434.09
2022-11-28T08:31:11.181Z,98425.78
2022-11-28T08:33:16.225Z,98422.44
2022-11-28T08:35:22.244Z,98422.44
2022-11-28T08:37:27.284Z,98429.84
2022-11-28T08:39:33.071Z,98429.00
2022-11-28T08:41:38.056Z,98428.13
2022-11-28T08:43:43.618Z,98423.97
2022-11-28T08:45:52.037Z,98428.91
2022-11-28T08:47:57.049Z,98427.22
2022-11-28T08:50:02.473Z,98430.56
2022-11-28T08:52:08.990Z,98432.19
2022-11-28T08:54:14.124Z,98433.81
2022-11-28T08:56:19.935Z,98428.78
2022-11-28T08:58:25.050Z,98436.22
2022-11-28T09:00:30.458Z,98437.81
2022-11-28T09:02:38.095Z,98431.16
2022-11-28T09:04:43.302Z,98431.09
2022-11-28T09:06:48.862Z,98433.59
2022-11-28T09:08:55.886Z,98437.66
2022-11-28T09:11:01.228Z,98440.13
2022-11-28T09:13:06.368Z,98433.44
2022-11-28T09:15:12.640Z,98441.75
2022-11-28T09:17:18.092Z,98435.06
2022-11-28T09:19:27.092Z,98437.50
2022-11-28T09:21:32.210Z,98433.28
2022-11-28T09:23:37.961Z,98439.13
2022-11-28T09:25:43.560Z,98433.16
2022-11-28T09:27:48.542Z,98428.16
2022-11-28T09:29:53.529Z,98428.16
2022-11-28T09:31:58.680Z,98440.59
2022-11-28T09:34:04.831Z,98433.09
2022-11-28T09:36:16.268Z,98434.00
2022-11-28T09:38:22.182Z,98433.09
2022-11-28T09:40:36.531Z,98429.75
2022-11-28T09:42:45.365Z,98429.72
2022-11-28T09:44:54.159Z,98433.00
2022-11-28T09:47:06.935Z,98424.78
2022-11-28T09:49:27.981Z,98423.88
2022-11-28T09:51:46.607Z,98418.88
2022-11-28T09:54:14.307Z,98413.91
2022-11-28T09:56:22.517Z,98414.66
2022-11-28T09:58:35.799Z,98413.00
2022-11-28T10:00:51.364Z,98415.50
2022-11-28T10:03:36.758Z,98414.53
2022-11-28T10:05:48.781Z,98414.53
2022-11-28T10:08:16.714Z,98416.06
2022-11-28T10:10:30.134Z,98407.81
2022-11-28T10:12:50.404Z,98405.22
2022-11-28T10:15:15.431Z,98394.25
2022-11-28T10:17:36.726Z,98390.06
2022-11-28T10:19:56.701Z,98394.25
2022-11-28T10:22:05.388Z,98388.47
2022-11-28T10:24:19.632Z,98392.59
2022-11-28T10:26:33.728Z,98398.41
2022-11-28T10:28:44.664Z,98393.41
2022-11-28T10:30:58.057Z,98391.59
2022-11-28T10:33:14.848Z,98385.69
2022-11-28T10:35:29.002Z,98380.69
2022-11-28T10:37:37.879Z,98389.09
2022-11-28T10:39:50.445Z,98385.75
2022-11-28T10:42:15.023Z,98387.38
2022-11-28T10:44:30.118Z,98379.84
2022-11-28T10:46:52.542Z,98367.06
2022-11-28T10:49:11.953Z,98371.38
2022-11-28T10:51:35.676Z,98357.06
2022-11-28T10:53:50.177Z,98356.28
2022-11-28T10:56:12.372Z,98365.47
2022-11-28T10:58:26.414Z,98362.81
2022-11-28T11:00:31.810Z,98362.78
2022-11-28T11:02:42.818Z,98360.22
2022-11-28T11:04:48.458Z,98356.88
2022-11-28T11:07:17.662Z,98368.38
2022-11-28T11:09:25.896Z,98373.16
2022-11-28T11:11:39.006Z,98373.91
2022-11-28T11:14:03.053Z,98373.16
2022-11-28T11:16:12.662Z,98373.22
2022-11-28T11:18:28.187Z,98374.91
2022-11-28T11:20:38.800Z,98369.84
2022-11-28T11:22:59.446Z,98364.84
2022-11-28T11:25:16.655Z,98366.44
2022-11-28T11:27:25.590Z,98365.63
2022-11-28T11:29:37.565Z,98364.91
2022-11-28T11:31:46.847Z,98363.31
2022-11-28T11:33:55.983Z,98364.06
2022-11-28T11:36:01.365Z,98364.06
2022-11-28T11:38:34.866Z,98360.63
2022-11-28T11:40:42.657Z,98360.66
2022-11-28T11:42:56.820Z,98354.72
2022-11-28T11:45:32.097Z,98351.38
2022-11-28T11:47:46.372Z,98354.97
2022-11-28T11:49:52.990Z,98357.41
2022-11-28T11:52:00.321Z,98359.78
2022-11-28T11:54:08.118Z,98353.13
2022-11-28T11:56:13.351Z,98355.56
2022-11-28T11:58:26.166Z,98361.56
2022-11-28T12:00:40.453Z,98358.19
2022-11-28T12:02:49.089Z,98366.56
2022-11-28T12:05:04.180Z,98357.38
2022-11-28T12:07:23.620Z,98358.38
2022-11-28T12:09:34.658Z,98358.31
2022-11-28T12:11:47.032Z,98350.00
2022-11-28T12:13:55.497Z,98357.41
2022-11-28T12:16:10.322Z,98354.09
2022-11-28T12:18:30.036Z,98359.81
2022-11-28T12:20:54.321Z,98354.88
2022-11-28T12:23:17.602Z,98359.81
2022-11-28T12:25:35.863Z,98354.88
2022-11-28T12:27:59.213Z,98347.28
2022-11-28T12:30:27.257Z,98351.34
2022-11-28T12:32:47.072Z,98347.88
2022-11-28T12:35:09.388Z,98350.34
2022-11-28T12:37:54.712Z,98342.88
2022-11-28T12:40:06.061Z,98344.69
2022-11-28T12:42:25.582Z,98352.09
2022-11-28T12:44:48.405Z,98347.13
2022-11-28T12:47:06.744Z,98349.53
2022-11-28T12:49:20.841Z,98355.47
2022-11-28T12:51:39.776Z,98352.13
2022-11-28T12:54:03.753Z,98345.38
2022-11-28T12:56:27.913Z,98343.69
2022-11-28T12:58:39.237Z,98340.38
2022-11-28T13:00:58.690Z,98336.94
2022-11-28T13:03:19.347Z,98341.13
2022-11-28T13:05:38.572Z,98336.84
2022-11-28T13:07:55.618Z,98337.78
2022-11-28T13:10:11.681Z,98339.31
2022-11-28T13:12:26.888Z,98336.84
2022-11-28T13:14:43.590Z,98340.25
2022-11-28T13:16:52.484Z,98331.19
2022-11-28T13:19:11.075Z,98331.19
2022-11-28T13:21:30.360Z,98328.75
2022-11-28T13:23:44.346Z,98322.81
2022-11-28T13:25:56.822Z,98332.94
2022-11-28T13:28:13.918Z,98333.06
2022-11-28T13:30:25.140Z,98330.59
2022-11-28T13:32:41.295Z,98332.09
2022-11-28T13:34:50.212Z,98327.94
2022-11-28T13:39:38.762Z,98324.75
2022-11-28T13:42:28.849Z,98331.47
2022-11-28T13:44:22.802Z,98326.34
2022-11-28T13:46:28.150Z,98323.91
2022-11-28T13:49:20.363Z,98331.53
2022-11-28T13:51:32.481Z,98329.13
2022-11-28T13:53:38.005Z,98332.47
2022-11-28T13:55:46.599Z,98334.91
2022-11-28T13:57:51.617Z,98331.59
2022-11-28T14:00:05.156Z,98331.72
2022-11-28T14:02:26.603Z,98335.97
2022-11-28T14:04:34.113Z,98327.63
2022-11-28T14:06:49.730Z,98329.28
2022-11-28T14:09:08.000Z,98325.94
2022-11-28T14:11:41.475Z,98328.50
2022-11-28T14:14:11.234Z,98325.22
2022-11-28T14:16:38.058Z,98327.59
2022-11-28T14:19:13.281Z,98328.38
2022-11-28T14:21:34.753Z,98335.88
2022-11-28T14:23:51.419Z,98334.28
2022-11-28T14:25:57.516Z,98335.22
2022-11-28T14:28:08.224Z,98331.88
2022-11-28T14:30:32.019Z,98336.91
2022-11-28T14:32:41.812Z,98338.53
2022-11-28T14:34:51.737Z,98338.56
2022-11-28T14:37:48.258Z,98340.31
2022-11-28T14:39:58.459Z,98337.78
2022-11-28T14:43:00.062Z,98341.91
2022-11-28T14:45:08.568Z,98340.22
2022-11-28T14:47:19.134Z,98345.22
2022-11-28T14:49:25.606Z,98342.78
2022-11-28T14:52:37.009Z,98346.94
2022-11-28T14:54:38.446Z,98347.03
2022-11-28T14:56:46.289Z,98347.88
2022-11-28T14:58:56.241Z,98347.06
2022-11-28T15:01:03.281Z,98341.22
2022-11-28T15:03:33.578Z,98343.72
2022-11-28T15:05:49.607Z,98347.06
2022-11-28T15:08:36.642Z,98347.97
2022-11-28T15:10:49.893Z,98343.03
2022-11-28T15:13:13.018Z,98342.22
2022-11-28T15:15:19.198Z,98340.53
2022-11-28T15:17:28.561Z,98345.59
2022-11-28T15:19:39.909Z,98343.97
2022-11-28T15:21:47.914Z,98353.19
2022-11-28T15:23:53.185Z,98350.72
2022-11-28T15:26:00.574Z,98352.38
2022-11-28T15:28:23.589Z,98351.63
2022-11-28T15:30:29.933Z,98351.59
2022-11-28T15:32:36.958Z,98350.78
2022-11-28T15:34:42.867Z,98348.28
2022-11-28T15:36:48.514Z,98355.78
2022-11-28T15:38:53.615Z,98358.28
2022-11-28T15:41:00.711Z,98351.59
2022-11-28T15:43:12.906Z,98346.63
2022-11-28T15:45:27.814Z,98343.34
2022-11-28T15:47:33.850Z,98353.25
2022-11-28T15:49:41.142Z,98355.78
2022-11-28T15:51:55.901Z,98350.78
2022-11-28T15:54:03.352Z,98357.44
2022-11-28T15:56:14.645Z,98364.88
2022-11-28T15:58:25.508Z,98359.09
2022-11-28T16:00:33.918Z,98359.09
2022-11-28T16:02:40.274Z,98353.28
2022-11-28T16:04:49.564Z,98359.94
2022-11-28T16:06:59.396Z,98362.44
2022-11-28T16:09:09.435Z,98356.59
2022-11-28T16:11:21.198Z,98363.25
2022-11-28T16:13:27.079Z,98365.75
2022-11-28T16:15:35.093Z,98367.41
2022-11-28T16:17:43.106Z,98365.75
2022-11-28T16:19:48.995Z,98364.09
2022-11-28T16:21:59.246Z,98361.53
2022-11-28T16:24:05.666Z,98369.03
2022-11-28T16:26:25.764Z,98365.72
2022-11-28T16:28:37.303Z,98362.38
2022-11-28T16:30:47.551Z,98358.19
2022-11-28T16:32:55.304Z,98354.78
2022-11-28T16:35:02.522Z,98363.25
2022-11-28T16:37:14.265Z,98355.78
2022-11-28T16:39:20.932Z,98359.16
2022-11-28T16:41:30.622Z,98362.44
2022-11-28T16:43:40.846Z,98362.50
2022-11-28T16:45:48.493Z,98361.69
2022-11-28T16:47:58.481Z,98363.34
2022-11-28T16:50:24.280Z,98365.84
2022-11-28T16:52:49.282Z,98372.50
2022-11-28T16:57:16.378Z,98365.91
2022-11-28T16:59:23.094Z,98366.75
2022-11-28T17:01:31.188Z,98362.59
2022-11-28T17:03:49.736Z,98374.25
2022-11-28T17:05:55.099Z,98370.94
2022-11-28T17:08:01.474Z,98375.94
2022-11-28T17:10:07.825Z,98372.56
2022-11-28T17:12:24.385Z,98378.41
2022-11-28T17:14:29.353Z,98374.31
2022-11-28T17:16:38.405Z,98372.59
2022-11-28T17:18:43.864Z,98372.66
2022-11-28T17:20:49.273Z,98371.81
2022-11-28T17:22:56.425Z,98374.31
2022-11-28T17:25:04.233Z,98367.66
2022-11-28T17:27:10.639Z,98371.81
2022-11-28T17:29:18.046Z,98370.97
2022-11-28T17:31:24.524Z,98369.19
2022-11-28T17:33:32.372Z,98371.81
2022-11-28T17:35:43.193Z,98370.13
2022-11-28T17:37:49.171Z,98374.34
2022-11-28T17:40:06.637Z,98370.97
2022-11-28T17:42:13.810Z,98379.31
2022-11-28T17:44:24.783Z,98374.31
2022-11-28T17:46:30.151Z,98374.31
2022-11-28T17:48:38.669Z,98377.69
2022-11-28T17:50:45.347Z,98381.00
2022-11-28T17:52:51.024Z,98376.00
2022-11-28T17:55:00.850Z,98384.31
2022-11-28T17:57:08.540Z,98375.84
2022-11-28T17:59:15.234Z,98380.91
2022-11-28T18:01:28.860Z,98378.47
2022-11-28T18:03:39.951Z,98382.66
2022-11-28T18:05:50.115Z,98382.66
2022-11-28T18:07:56.279Z,98378.50
2022-11-28T18:10:01.909Z,98381.84
2022-11-28T18:12:08.168Z,98382.66
2022-11-28T18:14:14.096Z,98382.66
2022-11-28T18:16:22.729Z,98389.28
2022-11-28T18:18:28.046Z,98385.19
2022-11-28T18:20:35.917Z,98381.00
2022-11-28T18:22:41.337Z,98385.13
2022-11-28T18:24:46.505Z,98384.28
2022-11-28T18:26:51.540Z,98381.00
2022-11-28T18:28:58.308Z,98386.84
2022-11-28T18:31:03.346Z,98381.00
2022-11-28T18:33:08.822Z,98386.84
2022-11-28T18:35:18.267Z,98381.00
2022-11-28T18:37:26.174Z,98386.84
2022-11-28T18:39:31.593Z,98386.03
2022-11-28T18:41:36.757Z,98387.69
2022-11-28T18:43:42.054Z,98394.34
2022-11-28T18:45:48.308Z,98392.66
2022-11-28T18:47:59.896Z,98391.00
2022-11-28T18:50:05.315Z,98390.19
2022-11-28T18:52:10.421Z,98386.84
2022-11-28T18:54:21.397Z,98402.66
2022-11-28T18:56:29.328Z,98391.81
2022-11-28T18:58:37.563Z,98392.63
2022-11-28T19:00:42.574Z,98404.28
2022-11-28T19:02:48.028Z,98395.09
2022-11-28T19:04:53.232Z,98394.31
2022-11-28T19:07:00.460Z,98400.13
2022-11-28T19:09:09.406Z,98397.56
2022-11-28T19:11:19.810Z,98402.56
2022-11-28T19:13:25.376Z,98397.56
2022-11-28T19:15:30.807Z,98415.06
2022-11-28T19:17:37.520Z,98399.25
2022-11-28T19:19:44.528Z,98406.75
2022-11-28T19:21:49.819Z,98396.66
2022-11-28T19:23:56.658Z,98403.41
2022-11-28T19:26:04.716Z,98400.94
2022-11-28T19:28:12.439Z,98405.91
2022-11-28T19:30:17.997Z,98404.25
2022-11-28T19:32:23.190Z,98413.41
2022-11-28T19:34:29.008Z,98411.81
2022-11-28T19:36:37.352Z,98416.81
2022-11-28T19:38:44.326Z,98411.81
2022-11-28T19:40:49.330Z,98416.00
2022-11-28T19:42:54.361Z,98414.28
2022-11-28T19:45:02.219Z,98409.28
2022-11-28T19:47:08.100Z,98407.69
2022-11-28T19:49:24.181Z,98414.28
2022-11-28T19:51:29.214Z,98415.94
2022-11-28T19:53:37.610Z,98418.44
2022-11-28T19:55:42.719Z,98425.94
2022-11-28T19:57:48.056Z,98422.66
2022-11-28T19:59:53.071Z,98425.13
2022-11-28T20:02:02.769Z,98425.91
2022-11-28T20:04:08.569Z,98427.63
2022-11-28T20:06:15.636Z,98425.94
2022-11-28T20:08:21.756Z,98434.31
2022-11-28T20:10:26.799Z,98428.47
2022-11-28T20:12:32.112Z,98430.97
2022-11-28T20:14:37.516Z,98432.63
2022-11-28T20:16:43.187Z,98435.94
2022-11-28T20:18:51.541Z,98432.66
2022-11-28T20:20:56.527Z,98439.28
2022-11-28T20:23:01.495Z,98436.78
2022-11-28T20:25:07.853Z,98441.78
2022-11-28T20:27:12.849Z,98441.78
2022-11-28T20:29:20.389Z,98440.94
2022-11-28T20:31:30.747Z,98450.94
2022-11-28T20:33:37.062Z,98439.28
2022-11-28T20:35:44.810Z,98445.94
2022-11-28T20:37:50.520Z,98445.94
2022-11-28T20:39:57.395Z,98445.09
2022-11-28T20:42:02.820Z,98452.63
2022-11-28T20:44:09.304Z,98450.94
2022-11-28T20:46:17.528Z,98443.44
2022-11-28T20:48:22.633Z,98445.94
2022-11-28T20:50:28.248Z,98450.97
2022-11-28T20:52:35.830Z,98440.97
2022-11-28T20:54:40.830Z,98440.97
2022-11-28T20:57:19.289Z,98442.66
2022-11-28T20:59:16.774Z,98443.53
2022-11-28T21:01:25.045Z,98436.06
2022-11-28T21:03:30.393Z,98442.72
2022-11-28T21:05:38.227Z,98443.56
2022-11-28T21:07:45.875Z,98444.41
2022-11-28T21:09:51.138Z,98446.88
2022-11-28T21:11:58.933Z,98449.38
2022-11-28T21:14:05.770Z,98449.34
2022-11-28T21:16:13.194Z,98451.88
2022-11-28T21:18:19.757Z,98451.06
2022-11-28T21:20:25.391Z,98451.88
2022-11-28T21:22:30.412Z,98449.38
2022-11-28T21:24:37.963Z,98446.06
2022-11-28T21:26:49.621Z,98456.88
2022-11-28T21:29:00.481Z,98449.41
2022-11-28T21:31:09.185Z,98452.72
2022-11-28T21:33:15.265Z,98451.09
2022-11-28T21:35:20.257Z,98458.63
2022-11-28T21:37:25.274Z,98461.13
2022-11-28T21:39:30.589Z,98457.78
2022-11-28T21:41:39.134Z,98461.09
2022-11-28T21:43:44.287Z,98449.44
2022-11-28T21:45:50.197Z,98447.78
2022-11-28T21:47:56.165Z,98446.13
2022-11-28T21:50:01.170Z,98448.63
2022-11-28T21:52:07.829Z,98446.13
2022-11-28T21:54:14.019Z,98446.94
2022-11-28T21:56:23.620Z,98443.59
2022-11-28T21:58:33.096Z,98446.91
2022-11-28T22:00:53.150Z,98446.09
2022-11-28T22:03:06.849Z,98446.09
2022-11-28T22:05:14.513Z,98446.94
2022-11-28T22:07:19.865Z,98452.78
2022-11-28T22:09:25.263Z,98442.78
2022-11-28T22:11:31.085Z,98457.78
2022-11-28T22:13:42.075Z,98448.66
2022-11-28T22:15:47.900Z,98444.53
2022-11-28T22:17:53.016Z,98446.19
2022-11-28T22:19:58.430Z,98447.03
2022-11-28T22:22:03.464Z,98444.56
2022-11-28T22:24:09.944Z,98447.09
2022-11-28T22:26:16.085Z,98446.25
2022-11-28T22:28:21.519Z,98446.25
2022-11-28T22:30:29.497Z,98443.75
2022-11-28T22:32:34.514Z,98449.63
2022-11-28T22:34:40.169Z,98444.63
2022-11-28T22:36:46.186Z,98447.97
2022-11-28T22:38:56.122Z,98450.53
2022-11-28T22:41:02.232Z,98459.69
2022-11-28T22:43:08.225Z,98451.34
2022-11-28T22:45:13.622Z,98453.03
2022-11-28T22:47:21.257Z,98453.84
2022-11-28T22:49:26.458Z,98444.72
2022-11-28T22:51:33.696Z,98454.69
2022-11-28T22:53:39.656Z,98451.38
2022-11-28T22:55:46.060Z,98448.06
2022-11-28T22:57:51.836Z,98452.25
2022-11-28T22:59:59.574Z,98452.25
2022-11-28T23:02:04.924Z,98454.75
2022-11-28T23:04:12.994Z,98453.09
2022-11-28T23:06:21.117Z,98460.63
2022-11-28T23:08:32.896Z,98457.31
2022-11-28T23:10:40.250Z,98459.81
2022-11-28T23:12:46.069Z,98458.16
2022-11-28T23:14:51.874Z,98456.53
2022-11-28T23:16:57.483Z,98460.69
2022-11-28T23:19:06.505Z,98463.13
2022-11-28T23:21:15.950Z,98467.34
2022-11-28T23:23:21.012Z,98461.47
2022-11-28T23:25:26.323Z,98458.13
2022-11-28T23:27:32.070Z,98462.28
2022-11-28T23:29:37.697Z,98462.28
2022-11-28T23:31:44.318Z,98459.78
2022-11-28T23:33:50.420Z,98468.06
2022-11-28T23:35:55.425Z,98468.13
2022-11-28T23:38:03.608Z,98465.63
2022-11-28T23:40:10.889Z,98468.91
2022-11-28T23:42:16.493Z,98467.28
2022-11-28T23:44:22.807Z,98463.13
2022-11-28T23:46:29.657Z,98468.13
2022-11-28T23:48:34.820Z,98468.13
2022-11-28T23:50:39.792Z,98463.13
2022-11-28T23:52:44.789Z,98469.72
2022-11-28T23:54:52.380Z,98463.06
2022-11-28T23:56:57.375Z,98464.78
2022-11-28T23:59:05.228Z,98461.41
